createdAt,value
2017-09-06T00:00:20.848Z,0
2017-09-06T00:01:19.768Z,0
2017-09-06T00:02:19.769Z,0
2017-09-06T00:03:20.095Z,0
2017-09-06T00:04:20.093Z,0
2017-09-06T00:05:22.381Z,0
2017-09-06T00:06:20.110Z,0
2017-09-06T00:07:19.791Z,0
2017-09-06T00:08:19.789Z,0
2017-09-06T00:09:20.116Z,0
2017-09-06T00:10:20.760Z,0
2017-09-06T00:11:19.818Z,0
2017-09-06T00:12:19.812Z,0
2017-09-06T00:13:19.491Z,0
2017-09-06T00:14:19.808Z,0
2017-09-06T00:15:20.776Z,0
2017-09-06T00:16:20.237Z,0
2017-09-06T00:17:19.508Z,0
2017-09-06T00:18:19.202Z,0
2017-09-06T00:19:20.159Z,0
2017-09-06T00:20:21.641Z,0
2017-09-06T00:21:19.837Z,0
2017-09-06T00:22:20.160Z,0
2017-09-06T00:23:19.824Z,0
2017-09-06T00:24:19.825Z,0
2017-09-06T00:25:21.145Z,0
2017-09-06T00:26:19.870Z,0
2017-09-06T00:27:19.858Z,0
2017-09-06T00:28:20.162Z,0
2017-09-06T00:29:20.174Z,0
2017-09-06T00:30:20.982Z,0
2017-09-06T00:31:19.541Z,0
2017-09-06T00:32:19.859Z,0
2017-09-06T00:33:19.861Z,0
2017-09-06T00:34:20.176Z,0
2017-09-06T00:35:21.521Z,0
2017-09-06T00:36:19.253Z,0
2017-09-06T00:37:19.552Z,0
2017-09-06T00:38:20.173Z,0
2017-09-06T00:39:20.186Z,0
2017-09-06T00:40:21.386Z,0
2017-09-06T00:41:19.575Z,0
2017-09-06T00:42:19.566Z,0
2017-09-06T00:43:19.568Z,0
2017-09-06T00:44:20.186Z,0
2017-09-06T00:45:22.029Z,0
2017-09-06T00:46:20.264Z,0
2017-09-06T00:47:19.592Z,0
2017-09-06T00:48:20.199Z,0
2017-09-06T00:49:20.215Z,0
2017-09-06T00:50:21.204Z,0
2017-09-06T00:51:20.218Z,0
2017-09-06T00:52:20.215Z,0
2017-09-06T00:53:19.593Z,0
2017-09-06T00:54:19.594Z,0
2017-09-06T00:55:20.975Z,0
2017-09-06T00:56:19.598Z,0
2017-09-06T00:57:19.909Z,0
2017-09-06T00:58:19.921Z,0
2017-09-06T00:59:20.232Z,0
2017-09-06T01:00:21.737Z,0
2017-09-06T01:01:19.623Z,0
2017-09-06T01:02:20.237Z,0
2017-09-06T01:03:19.920Z,0
2017-09-06T01:04:19.945Z,0
2017-09-06T01:05:21.445Z,0
2017-09-06T01:06:19.625Z,0
2017-09-06T01:07:19.626Z,0
2017-09-06T01:08:20.259Z,0
2017-09-06T01:09:20.246Z,0
2017-09-06T01:10:20.364Z,0
2017-09-06T01:11:19.953Z,0
2017-09-06T01:12:20.252Z,0
2017-09-06T01:13:20.254Z,0
2017-09-06T01:14:19.639Z,0
2017-09-06T01:15:21.446Z,0
2017-09-06T01:16:19.957Z,0
2017-09-06T01:17:19.981Z,0
2017-09-06T01:18:19.962Z,0
2017-09-06T01:19:19.347Z,0
2017-09-06T01:20:21.081Z,0
2017-09-06T01:21:19.361Z,0
2017-09-06T01:22:19.674Z,0
2017-09-06T01:23:19.691Z,0
2017-09-06T01:24:20.306Z,0
2017-09-06T01:25:20.659Z,0
2017-09-06T01:26:19.694Z,0
2017-09-06T01:27:19.671Z,0
2017-09-06T01:28:20.294Z,0
2017-09-06T01:29:19.984Z,0
2017-09-06T01:30:20.725Z,0
2017-09-06T01:31:20.326Z,0
2017-09-06T01:32:19.999Z,0
2017-09-06T01:33:19.390Z,0
2017-09-06T01:34:20.004Z,0
2017-09-06T01:35:21.674Z,0
2017-09-06T01:36:20.322Z,0
2017-09-06T01:37:19.709Z,0
2017-09-06T01:38:20.010Z,0
2017-09-06T01:39:20.329Z,0
2017-09-06T01:40:21.828Z,0
2017-09-06T01:41:19.715Z,0
2017-09-06T01:42:20.019Z,0
2017-09-06T01:43:20.337Z,0
2017-09-06T01:44:19.720Z,0
2017-09-06T01:45:21.366Z,0
2017-09-06T01:46:20.346Z,0
2017-09-06T01:47:20.342Z,0
2017-09-06T01:48:20.032Z,0
2017-09-06T01:49:20.353Z,0
2017-09-06T01:50:21.591Z,0
2017-09-06T01:51:20.047Z,0
2017-09-06T01:52:20.360Z,0
2017-09-06T01:53:20.056Z,0
2017-09-06T01:54:19.754Z,0
2017-09-06T01:55:21.449Z,0
2017-09-06T01:56:20.063Z,0
2017-09-06T01:57:19.760Z,0
2017-09-06T01:58:19.754Z,0
2017-09-06T01:59:19.761Z,0
2017-09-06T02:00:21.596Z,0
2017-09-06T02:01:20.067Z,0
2017-09-06T02:02:20.070Z,0
2017-09-06T02:03:19.772Z,0
2017-09-06T02:04:19.813Z,0
2017-09-06T02:05:21.416Z,0
2017-09-06T02:06:20.097Z,0
2017-09-06T02:07:20.407Z,0
2017-09-06T02:08:20.094Z,0
2017-09-06T02:09:20.402Z,0
2017-09-06T02:10:22.192Z,0
2017-09-06T02:11:20.404Z,0
2017-09-06T02:12:19.484Z,0
2017-09-06T02:13:20.406Z,0
2017-09-06T02:14:20.584Z,0
2017-09-06T02:15:21.872Z,0
2017-09-06T02:16:20.139Z,0
2017-09-06T02:17:19.846Z,0
2017-09-06T02:18:20.130Z,0
2017-09-06T02:19:20.428Z,0
2017-09-06T02:20:21.424Z,0
2017-09-06T02:21:20.428Z,0
2017-09-06T02:22:19.804Z,0
2017-09-06T02:23:19.827Z,0
2017-09-06T02:24:21.028Z,0
2017-09-06T02:25:22.206Z,0
2017-09-06T02:26:19.810Z,0
2017-09-06T02:27:20.431Z,0
2017-09-06T02:28:20.455Z,0
2017-09-06T02:29:19.810Z,0
2017-09-06T02:30:22.186Z,0
2017-09-06T02:31:19.860Z,0
2017-09-06T02:32:19.828Z,0
2017-09-06T02:33:20.128Z,0
2017-09-06T02:34:19.833Z,0
2017-09-06T02:35:21.136Z,0
2017-09-06T02:36:19.520Z,0
2017-09-06T02:37:20.146Z,0
2017-09-06T02:38:20.466Z,0
2017-09-06T02:39:20.457Z,0
2017-09-06T02:40:21.103Z,0
2017-09-06T02:41:19.523Z,0
2017-09-06T02:42:19.838Z,0
2017-09-06T02:43:20.485Z,0
2017-09-06T02:44:20.478Z,0
2017-09-06T02:45:21.571Z,0
2017-09-06T02:46:20.485Z,0
2017-09-06T02:47:20.481Z,0
2017-09-06T02:48:20.153Z,0
2017-09-06T02:49:20.155Z,0
2017-09-06T02:50:21.631Z,0
2017-09-06T02:51:20.482Z,0
2017-09-06T02:52:20.516Z,0
2017-09-06T02:53:20.179Z,0
2017-09-06T02:54:20.181Z,0
2017-09-06T02:55:21.379Z,0
2017-09-06T02:56:20.263Z,0
2017-09-06T02:57:20.184Z,0
2017-09-06T02:58:19.867Z,0
2017-09-06T02:59:20.194Z,0
2017-09-06T03:00:20.742Z,0
2017-09-06T03:01:20.513Z,0
2017-09-06T03:02:20.215Z,0
2017-09-06T03:03:19.885Z,0
2017-09-06T03:04:20.199Z,0
2017-09-06T03:05:20.786Z,0
2017-09-06T03:06:20.562Z,0
2017-09-06T03:07:19.892Z,0
2017-09-06T03:08:20.511Z,0
2017-09-06T03:09:20.193Z,0
2017-09-06T03:10:21.000Z,0
2017-09-06T03:11:20.225Z,0
2017-09-06T03:12:20.208Z,0
2017-09-06T03:13:20.538Z,0
2017-09-06T03:14:20.760Z,0
2017-09-06T03:15:20.903Z,0
2017-09-06T03:16:20.539Z,0
2017-09-06T03:17:20.544Z,0
2017-09-06T03:18:20.233Z,0
2017-09-06T03:19:19.613Z,0
2017-09-06T03:20:21.555Z,0
2017-09-06T03:21:19.932Z,0
2017-09-06T03:22:19.939Z,0
2017-09-06T03:23:19.960Z,0
2017-09-06T03:24:20.242Z,0
2017-09-06T03:25:20.843Z,0
2017-09-06T03:26:20.258Z,0
2017-09-06T03:27:19.644Z,0
2017-09-06T03:28:19.937Z,0
2017-09-06T03:29:20.248Z,0
2017-09-06T03:30:20.734Z,0
2017-09-06T03:31:19.938Z,0
2017-09-06T03:32:20.558Z,0
2017-09-06T03:33:20.266Z,0
2017-09-06T03:34:20.251Z,0
2017-09-06T03:35:21.280Z,0
2017-09-06T03:36:20.570Z,0
2017-09-06T03:37:19.947Z,0
2017-09-06T03:38:20.260Z,0
2017-09-06T03:39:19.947Z,0
2017-09-06T03:40:21.567Z,0
2017-09-06T03:41:20.008Z,0
2017-09-06T03:42:20.263Z,0
2017-09-06T03:43:19.953Z,0
2017-09-06T03:44:21.530Z,0
2017-09-06T03:45:21.992Z,0
2017-09-06T03:46:20.608Z,0
2017-09-06T03:47:20.001Z,0
2017-09-06T03:48:20.586Z,0
2017-09-06T03:49:20.585Z,0
2017-09-06T03:50:21.860Z,0
2017-09-06T03:51:20.646Z,0
2017-09-06T03:52:20.276Z,0
2017-09-06T03:53:20.614Z,0
2017-09-06T03:54:20.281Z,0
2017-09-06T03:55:21.646Z,0
2017-09-06T03:56:20.346Z,0
2017-09-06T03:57:20.616Z,0
2017-09-06T03:58:20.617Z,0
2017-09-06T03:59:20.607Z,0
2017-09-06T04:00:22.067Z,0
2017-09-06T04:01:20.622Z,0
2017-09-06T04:02:20.302Z,0
2017-09-06T04:03:20.341Z,0
2017-09-06T04:04:20.613Z,0
2017-09-06T04:05:21.396Z,0
2017-09-06T04:06:19.686Z,0
2017-09-06T04:07:19.993Z,0
2017-09-06T04:08:19.997Z,0
2017-09-06T04:09:20.309Z,0
2017-09-06T04:10:21.715Z,0
2017-09-06T04:11:20.729Z,0
2017-09-06T04:12:19.707Z,0
2017-09-06T04:13:20.633Z,0
2017-09-06T04:14:20.325Z,0
2017-09-06T04:15:21.837Z,0
2017-09-06T04:16:20.633Z,0
2017-09-06T04:17:20.022Z,0
2017-09-06T04:18:20.348Z,0
2017-09-06T04:19:19.724Z,0
2017-09-06T04:20:22.123Z,0
2017-09-06T04:21:20.689Z,0
2017-09-06T04:22:20.340Z,0
2017-09-06T04:23:20.398Z,0
2017-09-06T04:24:20.338Z,0
2017-09-06T04:25:22.924Z,0
2017-09-06T04:26:20.356Z,0
2017-09-06T04:27:20.673Z,0
2017-09-06T04:28:20.358Z,0
2017-09-06T04:29:20.050Z,0
2017-09-06T04:30:22.447Z,0
2017-09-06T04:31:20.673Z,0
2017-09-06T04:32:20.367Z,0
2017-09-06T04:33:20.667Z,0
2017-09-06T04:34:19.746Z,0
2017-09-06T04:35:20.546Z,0
2017-09-06T04:36:20.371Z,0
2017-09-06T04:37:20.055Z,0
2017-09-06T04:38:20.052Z,0
2017-09-06T04:39:20.059Z,0
2017-09-06T04:40:22.241Z,0
2017-09-06T04:41:20.152Z,0
2017-09-06T04:42:20.686Z,0
2017-09-06T04:43:20.096Z,0
2017-09-06T04:44:20.376Z,0
2017-09-06T04:45:25.246Z,0
2017-09-06T04:46:20.072Z,0
2017-09-06T04:47:20.706Z,0
2017-09-06T04:48:20.703Z,0
2017-09-06T04:49:19.775Z,0
2017-09-06T04:50:22.038Z,0
2017-09-06T04:51:20.089Z,0
2017-09-06T04:52:20.700Z,0
2017-09-06T04:53:20.083Z,0
2017-09-06T04:54:20.398Z,0
2017-09-06T04:55:20.498Z,5
2017-09-06T04:56:20.454Z,5
2017-09-06T04:57:20.406Z,5
2017-09-06T04:58:20.727Z,5
2017-09-06T04:59:20.403Z,5
2017-09-06T05:00:21.866Z,10
2017-09-06T05:01:20.727Z,10
2017-09-06T05:02:20.111Z,10
2017-09-06T05:03:19.794Z,10
2017-09-06T05:04:20.729Z,10
2017-09-06T05:05:20.596Z,10
2017-09-06T05:06:20.442Z,15
2017-09-06T05:07:20.735Z,15
2017-09-06T05:08:20.732Z,10
2017-09-06T05:09:20.425Z,10
2017-09-06T05:10:22.224Z,10
2017-09-06T05:11:20.742Z,10
2017-09-06T05:12:20.429Z,10
2017-09-06T05:13:20.452Z,10
2017-09-06T05:14:20.752Z,15
2017-09-06T05:15:21.577Z,15
2017-09-06T05:16:20.175Z,15
2017-09-06T05:17:20.136Z,15
2017-09-06T05:18:20.751Z,15
2017-09-06T05:19:20.455Z,20
2017-09-06T05:20:21.448Z,20
2017-09-06T05:21:20.468Z,30
2017-09-06T05:22:20.476Z,35
2017-09-06T05:23:20.766Z,40
2017-09-06T05:24:20.469Z,45
2017-09-06T05:25:22.323Z,50
2017-09-06T05:26:20.169Z,50
2017-09-06T05:27:20.160Z,50
2017-09-06T05:28:19.906Z,50
2017-09-06T05:29:20.166Z,55
2017-09-06T05:30:21.556Z,55
2017-09-06T05:31:20.181Z,55
2017-09-06T05:32:20.491Z,60
2017-09-06T05:33:20.807Z,65
2017-09-06T05:34:20.185Z,70
2017-09-06T05:35:20.690Z,70
2017-09-06T05:36:19.873Z,75
2017-09-06T05:37:20.558Z,75
2017-09-06T05:38:20.499Z,75
2017-09-06T05:39:20.194Z,80
2017-09-06T05:40:21.810Z,75
2017-09-06T05:41:20.916Z,75
2017-09-06T05:42:20.212Z,75
2017-09-06T05:43:20.885Z,75
2017-09-06T05:44:20.500Z,75
2017-09-06T05:45:21.579Z,70
2017-09-06T05:46:20.840Z,70
2017-09-06T05:47:20.820Z,70
2017-09-06T05:48:20.521Z,80
2017-09-06T05:49:20.520Z,80
2017-09-06T05:50:21.785Z,75
2017-09-06T05:51:20.268Z,80
2017-09-06T05:52:20.536Z,80
2017-09-06T05:53:20.540Z,85
2017-09-06T05:54:20.537Z,85
2017-09-06T05:55:22.190Z,90
2017-09-06T05:56:20.236Z,85
2017-09-06T05:57:20.554Z,80
2017-09-06T05:58:20.542Z,80
2017-09-06T05:59:20.550Z,80
2017-09-06T06:00:21.996Z,80
2017-09-06T06:01:20.241Z,85
2017-09-06T06:02:20.868Z,90
2017-09-06T06:03:20.869Z,95
2017-09-06T06:04:20.578Z,100
2017-09-06T06:05:22.204Z,95
2017-09-06T06:06:19.967Z,95
2017-09-06T06:07:20.579Z,100
2017-09-06T06:08:20.569Z,100
2017-09-06T06:09:20.918Z,95
2017-09-06T06:10:22.228Z,85
2017-09-06T06:11:20.278Z,80
2017-09-06T06:12:20.270Z,75
2017-09-06T06:13:20.596Z,75
2017-09-06T06:14:20.588Z,80
2017-09-06T06:15:21.748Z,90
2017-09-06T06:16:20.313Z,95
2017-09-06T06:17:20.605Z,105
2017-09-06T06:18:20.304Z,105
2017-09-06T06:19:20.916Z,105
2017-09-06T06:20:22.054Z,105
2017-09-06T06:21:20.669Z,115
2017-09-06T06:22:20.303Z,120
2017-09-06T06:23:20.930Z,130
2017-09-06T06:24:20.929Z,140
2017-09-06T06:25:21.604Z,145
2017-09-06T06:26:20.934Z,190
2017-09-06T06:27:20.322Z,180
2017-09-06T06:28:20.941Z,150
2017-09-06T06:29:20.938Z,175
2017-09-06T06:30:21.292Z,170
2017-09-06T06:31:20.339Z,170
2017-09-06T06:32:20.042Z,115
2017-09-06T06:33:20.038Z,105
2017-09-06T06:34:20.658Z,100
2017-09-06T06:35:21.756Z,100
2017-09-06T06:36:20.671Z,100
2017-09-06T06:37:20.679Z,115
2017-09-06T06:38:20.713Z,150
2017-09-06T06:39:20.989Z,90
2017-09-06T06:40:21.704Z,90
2017-09-06T06:41:20.384Z,95
2017-09-06T06:42:20.401Z,100
2017-09-06T06:43:20.703Z,110
2017-09-06T06:44:21.012Z,205
2017-09-06T06:45:21.952Z,135
2017-09-06T06:46:21.508Z,140
2017-09-06T06:47:21.021Z,140
2017-09-06T06:48:21.016Z,140
2017-09-06T06:49:20.731Z,140
2017-09-06T06:50:22.336Z,145
2017-09-06T06:51:21.033Z,145
2017-09-06T06:52:20.429Z,135
2017-09-06T06:53:20.111Z,140
2017-09-06T06:54:20.440Z,150
2017-09-06T06:55:21.664Z,215
2017-09-06T06:56:20.749Z,265
2017-09-06T06:57:21.056Z,280
2017-09-06T06:58:21.079Z,290
2017-09-06T06:59:20.803Z,295
2017-09-06T07:00:22.644Z,195
2017-09-06T07:01:20.800Z,190
2017-09-06T07:02:20.781Z,195
2017-09-06T07:03:20.156Z,180
2017-09-06T07:04:20.466Z,175
2017-09-06T07:05:21.982Z,170
2017-09-06T07:06:20.171Z,170
2017-09-06T07:07:21.102Z,170
2017-09-06T07:08:20.796Z,165
2017-09-06T07:09:21.109Z,160
2017-09-06T07:10:21.623Z,155
2017-09-06T07:11:21.245Z,155
2017-09-06T07:12:21.134Z,155
2017-09-06T07:13:21.153Z,160
2017-09-06T07:14:21.159Z,165
2017-09-06T07:15:21.901Z,245
2017-09-06T07:16:20.921Z,240
2017-09-06T07:17:20.853Z,250
2017-09-06T07:18:20.851Z,230
2017-09-06T07:19:21.166Z,180
2017-09-06T07:20:22.520Z,185
2017-09-06T07:21:21.207Z,240
2017-09-06T07:22:20.870Z,230
2017-09-06T07:23:20.874Z,180
2017-09-06T07:24:21.185Z,180
2017-09-06T07:25:21.956Z,190
2017-09-06T07:26:21.255Z,190
2017-09-06T07:27:20.916Z,210
2017-09-06T07:28:21.217Z,195
2017-09-06T07:29:20.587Z,300
2017-09-06T07:30:22.369Z,300
2017-09-06T07:31:20.665Z,300
2017-09-06T07:32:20.606Z,300
2017-09-06T07:33:20.917Z,300
2017-09-06T07:34:21.223Z,310
2017-09-06T07:35:22.371Z,310
2017-09-06T07:36:20.969Z,305
2017-09-06T07:37:20.632Z,305
2017-09-06T07:38:20.972Z,310
2017-09-06T07:39:21.261Z,315
2017-09-06T07:40:22.130Z,315
2017-09-06T07:41:20.677Z,325
2017-09-06T07:42:20.961Z,295
2017-09-06T07:43:20.664Z,335
2017-09-06T07:44:20.972Z,265
2017-09-06T07:45:22.171Z,280
2017-09-06T07:46:21.043Z,280
2017-09-06T07:47:20.993Z,260
2017-09-06T07:48:20.721Z,290
2017-09-06T07:49:20.414Z,245
2017-09-06T07:50:22.180Z,190
2017-09-06T07:51:21.036Z,190
2017-09-06T07:52:20.732Z,190
2017-09-06T07:53:21.038Z,190
2017-09-06T07:54:21.352Z,195
2017-09-06T07:55:21.935Z,260
2017-09-06T07:56:21.059Z,320
2017-09-06T07:57:20.759Z,315
2017-09-06T07:58:21.075Z,310
2017-09-06T07:59:20.773Z,300
2017-09-06T08:00:22.189Z,295
2017-09-06T08:01:20.795Z,290
2017-09-06T08:02:20.790Z,295
2017-09-06T08:03:21.100Z,290
2017-09-06T08:04:21.164Z,295
2017-09-06T08:05:21.257Z,290
2017-09-06T08:06:21.199Z,280
2017-09-06T08:07:21.437Z,270
2017-09-06T08:08:21.438Z,265
2017-09-06T08:09:21.136Z,265
2017-09-06T08:10:22.761Z,265
2017-09-06T08:11:21.515Z,270
2017-09-06T08:12:21.164Z,270
2017-09-06T08:13:21.480Z,320
2017-09-06T08:14:21.489Z,255
2017-09-06T08:15:20.921Z,320
2017-09-06T08:16:21.182Z,320
2017-09-06T08:17:20.878Z,315
2017-09-06T08:18:21.539Z,260
2017-09-06T08:19:21.213Z,200
2017-09-06T08:20:22.352Z,315
2017-09-06T08:21:21.282Z,315
2017-09-06T08:22:21.530Z,300
2017-09-06T08:23:21.536Z,320
2017-09-06T08:24:21.546Z,295
2017-09-06T08:25:22.098Z,320
2017-09-06T08:26:20.942Z,315
2017-09-06T08:27:21.256Z,315
2017-09-06T08:28:21.276Z,315
2017-09-06T08:29:21.583Z,315
2017-09-06T08:30:22.534Z,315
2017-09-06T08:31:21.311Z,320
2017-09-06T08:32:21.290Z,325
2017-09-06T08:33:21.614Z,335
2017-09-06T08:34:21.623Z,355
2017-09-06T08:35:22.005Z,370
2017-09-06T08:36:21.669Z,385
2017-09-06T08:37:21.336Z,375
2017-09-06T08:38:21.641Z,395
2017-09-06T08:39:21.344Z,375
2017-09-06T08:40:22.166Z,280
2017-09-06T08:41:21.728Z,270
2017-09-06T08:42:21.356Z,305
2017-09-06T08:43:21.355Z,270
2017-09-06T08:44:21.361Z,275
2017-09-06T08:45:22.470Z,265
2017-09-06T08:46:21.112Z,260
2017-09-06T08:47:21.378Z,260
2017-09-06T08:48:21.089Z,245
2017-09-06T08:49:21.084Z,240
2017-09-06T08:50:22.648Z,230
2017-09-06T08:51:21.152Z,230
2017-09-06T08:52:21.121Z,235
2017-09-06T08:53:21.424Z,230
2017-09-06T08:54:21.420Z,225
2017-09-06T08:55:22.687Z,235
2017-09-06T08:56:21.472Z,240
2017-09-06T08:57:21.441Z,245
2017-09-06T08:58:20.856Z,260
2017-09-06T08:59:20.849Z,275
2017-09-06T09:00:22.507Z,270
2017-09-06T09:01:21.470Z,260
2017-09-06T09:02:21.768Z,250
2017-09-06T09:03:21.793Z,260
2017-09-06T09:56:58.217Z,165
2017-09-06T09:57:38.425Z,165
2017-09-06T09:58:39.347Z,165
2017-09-06T09:59:39.353Z,175
2017-09-06T10:00:39.363Z,190
2017-09-06T10:01:38.458Z,200
2017-09-06T10:02:38.762Z,220
2017-09-06T10:03:39.374Z,240
2017-09-06T10:04:39.070Z,255
2017-09-06T10:05:38.973Z,280
2017-09-06T10:06:39.094Z,295
2017-09-06T10:07:39.103Z,300
2017-09-06T10:08:39.094Z,305
2017-09-06T10:09:39.130Z,310
2017-09-06T10:10:38.802Z,320
2017-09-06T10:11:38.510Z,330
2017-09-06T10:12:40.950Z,340
2017-09-06T10:13:39.424Z,345
2017-09-06T10:14:39.443Z,380
2017-09-06T10:15:38.863Z,375
2017-09-06T10:16:39.447Z,360
2017-09-06T10:17:38.821Z,335
2017-09-06T10:18:39.460Z,325
2017-09-06T10:19:39.146Z,320
2017-09-06T10:20:39.163Z,305
2017-09-06T10:21:39.159Z,270
2017-09-06T10:22:39.138Z,250
2017-09-06T10:23:38.550Z,220
2017-09-06T10:24:39.166Z,200
2017-09-06T10:25:39.185Z,185
2017-09-06T10:26:38.879Z,170
2017-09-06T10:27:39.509Z,165
2017-09-06T10:28:38.882Z,180
2017-09-06T10:29:39.498Z,205
2017-09-06T10:30:39.199Z,230
2017-09-06T10:31:39.210Z,260
2017-09-06T10:32:38.911Z,280
2017-09-06T10:33:38.904Z,290
2017-09-06T10:34:38.966Z,295
2017-09-06T10:35:39.234Z,300
2017-09-06T10:36:39.224Z,335
2017-09-06T10:37:39.555Z,405
2017-09-06T10:38:39.258Z,345
2017-09-06T10:39:38.942Z,335
2017-09-06T10:40:39.241Z,330
2017-09-06T10:41:39.255Z,355
2017-09-06T10:42:41.329Z,340
2017-09-06T10:43:38.997Z,345
2017-09-06T10:44:39.290Z,405
2017-09-06T10:45:38.996Z,320
2017-09-06T10:46:39.309Z,295
2017-09-06T10:47:38.971Z,285
2017-09-06T10:48:38.997Z,285
2017-09-06T10:49:39.332Z,275
2017-09-06T10:50:39.002Z,240
2017-09-06T10:51:39.335Z,200
2017-09-06T10:52:39.313Z,175
2017-09-06T10:53:39.637Z,180
2017-09-06T10:54:39.012Z,200
2017-09-06T10:55:39.627Z,200
2017-09-06T10:56:39.653Z,170
2017-09-06T10:57:39.396Z,150
2017-09-06T10:58:39.671Z,125
2017-09-06T10:59:39.661Z,120
2017-09-06T11:00:39.064Z,140
2017-09-06T11:01:39.356Z,150
2017-09-06T11:02:39.066Z,170
2017-09-06T11:03:38.753Z,195
2017-09-06T11:04:39.043Z,235
2017-09-06T11:05:39.646Z,295
2017-09-06T11:06:39.362Z,300
2017-09-06T11:07:39.687Z,260
2017-09-06T11:08:39.067Z,275
2017-09-06T11:09:39.382Z,255
2017-09-06T11:10:39.703Z,265
2017-09-06T11:11:39.085Z,295
2017-09-06T11:12:39.996Z,335
2017-09-06T11:13:39.409Z,370
2017-09-06T11:14:39.401Z,325
2017-09-06T11:15:39.731Z,375
2017-09-06T11:16:39.406Z,375
2017-09-06T11:17:39.424Z,355
2017-09-06T11:18:39.128Z,380
2017-09-06T11:19:39.463Z,335
2017-09-06T11:20:39.733Z,360
2017-09-06T11:21:38.802Z,350
2017-09-06T11:22:38.823Z,290
2017-09-06T11:23:39.434Z,225
2017-09-06T11:24:39.766Z,205
2017-09-06T11:25:39.434Z,175
2017-09-06T11:26:38.524Z,150
2017-09-06T11:27:44.309Z,125
2017-09-06T11:28:39.457Z,105
2017-09-06T11:29:39.519Z,105
2017-09-06T11:30:39.479Z,105
2017-09-06T11:31:39.493Z,120
2017-09-06T11:32:39.775Z,130
2017-09-06T11:33:39.165Z,145
2017-09-06T11:34:39.486Z,170
2017-09-06T11:35:39.500Z,195
2017-09-06T11:36:39.528Z,200
2017-09-06T11:37:39.491Z,170
2017-09-06T11:38:39.501Z,145
2017-09-06T11:39:39.196Z,155
2017-09-06T11:40:39.532Z,160
2017-09-06T11:41:39.827Z,170
2017-09-06T11:42:39.823Z,175
2017-09-06T11:43:40.620Z,190
2017-09-06T11:44:39.827Z,205
2017-09-06T11:45:39.212Z,210
2017-09-06T11:46:39.829Z,200
2017-09-06T11:47:39.212Z,215
2017-09-06T11:48:39.532Z,230
2017-09-06T11:49:39.525Z,245
2017-09-06T11:50:39.535Z,265
2017-09-06T11:51:39.550Z,305
2017-09-06T11:52:39.857Z,330
2017-09-06T11:53:39.230Z,345
2017-09-06T11:54:39.233Z,355
2017-09-06T11:55:38.925Z,350
2017-09-06T11:56:39.249Z,385
2017-09-06T11:57:39.586Z,380
2017-09-06T11:58:40.045Z,370
2017-09-06T11:59:39.882Z,350
2017-09-06T12:00:39.251Z,340
2017-09-06T12:01:39.267Z,335
2017-09-06T12:02:38.954Z,310
2017-09-06T12:03:39.260Z,320
2017-09-06T12:04:40.380Z,300
2017-09-06T12:05:41.042Z,255
2017-09-06T12:06:39.962Z,210
2017-09-06T12:07:39.597Z,210
2017-09-06T12:08:39.297Z,185
2017-09-06T12:09:39.419Z,210
2017-09-06T12:10:39.340Z,190
2017-09-06T12:11:39.608Z,170
2017-09-06T12:12:39.941Z,160
2017-09-06T12:13:40.181Z,190
2017-09-06T12:14:39.616Z,215
2017-09-06T12:15:39.310Z,230
2017-09-06T12:16:39.613Z,265
2017-09-06T12:17:39.306Z,300
2017-09-06T12:18:39.006Z,310
2017-09-06T12:19:39.640Z,330
2017-09-06T12:20:39.941Z,305
2017-09-06T12:21:39.642Z,270
2017-09-06T12:22:39.636Z,250
2017-09-06T12:23:39.357Z,230
2017-09-06T12:24:39.351Z,210
2017-09-06T12:25:39.648Z,205
2017-09-06T12:26:39.353Z,230
2017-09-06T12:27:39.355Z,220
2017-09-06T12:28:39.354Z,210
2017-09-06T12:29:39.382Z,205
2017-09-06T12:30:39.366Z,200
2017-09-06T12:31:39.389Z,205
2017-09-06T12:32:39.681Z,200
2017-09-06T12:33:39.685Z,200
2017-09-06T12:34:40.004Z,200
2017-09-06T12:35:39.063Z,200
2017-09-06T12:36:40.329Z,200
2017-09-06T12:37:39.409Z,200
2017-09-06T12:38:39.998Z,190
2017-09-06T12:39:39.692Z,205
2017-09-06T12:40:39.708Z,220
2017-09-06T12:41:39.720Z,220
2017-09-06T12:42:39.420Z,215
2017-09-06T12:43:40.018Z,230
2017-09-06T12:44:39.723Z,225
2017-09-06T12:45:39.713Z,215
2017-09-06T12:46:39.418Z,225
2017-09-06T12:47:40.039Z,235
2017-09-06T12:48:39.740Z,220
2017-09-06T12:49:39.113Z,190
2017-09-06T12:50:39.733Z,225
2017-09-06T12:51:39.426Z,190
2017-09-06T12:52:39.428Z,195
2017-09-06T12:53:39.764Z,195
2017-09-06T12:54:40.055Z,200
2017-09-06T12:55:39.444Z,180
2017-09-06T12:56:39.755Z,185
2017-09-06T12:57:39.451Z,200
2017-09-06T12:58:39.761Z,190
2017-09-06T12:59:39.457Z,175
2017-09-06T13:00:40.083Z,185
2017-09-06T13:01:39.524Z,180
2017-09-06T13:02:40.080Z,215
2017-09-06T13:03:39.466Z,215
2017-09-06T13:04:39.779Z,210
2017-09-06T13:05:39.783Z,210
2017-09-06T13:06:39.481Z,215
2017-09-06T13:07:39.791Z,215
2017-09-06T13:08:39.500Z,215
2017-09-06T13:09:40.104Z,220
2017-09-06T13:10:40.230Z,210
2017-09-06T13:11:39.520Z,220
2017-09-06T13:12:40.062Z,225
2017-09-06T13:13:39.529Z,230
2017-09-06T13:14:38.886Z,225
2017-09-06T13:15:39.511Z,225
2017-09-06T13:16:39.835Z,235
2017-09-06T13:17:39.823Z,235
2017-09-06T13:18:39.835Z,210
2017-09-06T13:19:39.828Z,235
2017-09-06T13:20:39.850Z,235
2017-09-06T13:21:39.535Z,200
2017-09-06T13:22:39.532Z,190
2017-09-06T13:23:39.852Z,220
2017-09-06T13:24:40.154Z,180
2017-09-06T13:25:39.581Z,215
2017-09-06T13:26:39.537Z,225
2017-09-06T13:27:39.239Z,215
2017-09-06T13:28:40.168Z,225
2017-09-06T13:29:39.243Z,220
2017-09-06T13:30:39.561Z,215
2017-09-06T13:31:39.868Z,215
2017-09-06T13:32:40.185Z,220
2017-09-06T13:33:39.258Z,225
2017-09-06T13:34:39.887Z,230
2017-09-06T13:35:39.884Z,210
2017-09-06T13:36:39.838Z,215
2017-09-06T13:37:39.584Z,235
2017-09-06T13:38:40.334Z,260
2017-09-06T13:39:39.623Z,265
2017-09-06T13:40:39.600Z,250
2017-09-06T13:41:39.656Z,240
2017-09-06T13:42:39.618Z,245
2017-09-06T13:43:40.788Z,240
2017-09-06T13:44:40.572Z,235
2017-09-06T13:45:40.227Z,230
2017-09-06T13:46:43.347Z,250
2017-09-06T13:47:41.161Z,250
2017-09-06T13:48:40.363Z,240
2017-09-06T13:49:47.933Z,255
2017-09-06T13:50:41.069Z,265
2017-09-06T13:51:42.613Z,245
2017-09-06T13:52:43.044Z,220
2017-09-06T13:53:42.433Z,215
2017-09-06T13:54:41.557Z,215
2017-09-06T13:55:40.899Z,225
2017-09-06T13:56:40.272Z,220
2017-09-06T13:57:40.279Z,220
2017-09-06T13:58:39.969Z,235
2017-09-06T13:59:40.282Z,215
2017-09-06T14:00:39.989Z,205
2017-09-06T14:01:39.988Z,195
2017-09-06T14:02:39.675Z,225
2017-09-06T14:03:40.611Z,255
2017-09-06T14:04:39.697Z,280
2017-09-06T14:05:40.329Z,265
2017-09-06T14:06:40.333Z,245
2017-09-06T14:07:39.727Z,230
2017-09-06T14:08:40.350Z,250
2017-09-06T14:09:39.701Z,220
2017-09-06T14:10:40.127Z,245
2017-09-06T14:11:39.749Z,220
2017-09-06T14:12:39.400Z,195
2017-09-06T14:13:40.341Z,215
2017-09-06T14:14:40.339Z,225
2017-09-06T14:15:39.778Z,275
2017-09-06T14:16:40.041Z,250
2017-09-06T14:17:40.366Z,235
2017-09-06T14:18:40.050Z,215
2017-09-06T14:19:40.350Z,245
2017-09-06T14:20:40.050Z,240
2017-09-06T14:21:39.742Z,215
2017-09-06T14:22:39.744Z,215
2017-09-06T14:23:40.064Z,205
2017-09-06T14:24:39.754Z,200
2017-09-06T14:25:40.098Z,180
2017-09-06T14:26:40.385Z,220
2017-09-06T14:27:40.085Z,235
2017-09-06T14:28:40.414Z,215
2017-09-06T14:29:40.492Z,205
2017-09-06T14:30:39.817Z,215
2017-09-06T14:31:40.097Z,230
2017-09-06T14:32:40.098Z,245
2017-09-06T14:33:39.806Z,210
2017-09-06T14:34:40.180Z,200
2017-09-06T14:35:40.106Z,180
2017-09-06T14:36:40.423Z,195
2017-09-06T14:37:40.115Z,205
2017-09-06T14:38:39.804Z,225
2017-09-06T14:39:40.442Z,215
2017-09-06T14:40:40.452Z,215
2017-09-06T14:41:40.119Z,245
2017-09-06T14:42:40.446Z,220
2017-09-06T14:43:39.823Z,200
2017-09-06T14:44:40.140Z,190
2017-09-06T14:45:40.142Z,180
2017-09-06T14:46:40.139Z,175
2017-09-06T14:47:39.527Z,165
2017-09-06T14:48:39.530Z,165
2017-09-06T14:49:39.534Z,180
2017-09-06T14:50:39.846Z,180
2017-09-06T14:51:40.193Z,160
2017-09-06T14:52:40.175Z,150
2017-09-06T14:53:40.468Z,155
2017-09-06T14:54:39.863Z,150
2017-09-06T14:55:40.191Z,155
2017-09-06T14:56:40.204Z,150
2017-09-06T14:57:40.176Z,155
2017-09-06T14:58:39.574Z,160
2017-09-06T14:59:39.880Z,175
2017-09-06T15:00:40.194Z,170
2017-09-06T15:01:40.194Z,170